sensor_id;sensor_type;location;lat;lon;timestamp;pressure;altitude;pressure_sealevel;temperature;humidity
31761;BME280;18335;51.486;7.562;2023-01-25T00:02:09;102235.53;;;0.69;100.00
31761;BME280;18335;51.486;7.562;2023-01-25T00:04:54;102234.03;;;0.62;100.00
31761;BME280;18335;51.486;7.562;2023-01-25T00:07:21;102225.56;;;0.48;100.00
31761;BME280;18335;51.486;7.562;2023-01-25T00:09:48;102230.72;;;0.54;100.00
31761;BME280;18335;51.486;7.562;2023-01-25T00:12:15;102234.25;;;0.56;100.00
31761;BME280;18335;51.486;7.562;2023-01-25T00:14:43;102227.44;;;0.46;100.00
31761;BME280;18335;51.486;7.562;2023-01-25T00:17:10;102227.72;;;0.38;100.00
31761;BME280;18335;51.486;7.562;2023-01-25T00:19:37;102227.75;;;0.37;100.00
31761;BME280;18335;51.486;7.562;2023-01-25T00:22:04;102222.53;;;0.57;100.00
31761;BME280;18335;51.486;7.562;2023-01-25T00:24:30;102222.22;;;0.66;100.00
31761;BME280;18335;51.486;7.562;2023-01-25T00:26:57;102205.84;;;0.74;100.00
31761;BME280;18335;51.486;7.562;2023-01-25T00:29:24;102213.72;;;0.78;100.00
31761;BME280;18335;51.486;7.562;2023-01-25T00:32:01;102210.00;;;0.57;100.00
31761;BME280;18335;51.486;7.562;2023-01-25T00:34:45;102212.03;;;0.76;100.00
31761;BME280;18335;51.486;7.562;2023-01-25T00:37:18;102207.75;;;0.70;100.00
31761;BME280;18335;51.486;7.562;2023-01-25T00:39:45;102202.22;;;0.75;100.00
31761;BME280;18335;51.486;7.562;2023-01-25T00:42:13;102199.66;;;0.72;100.00
31761;BME280;18335;51.486;7.562;2023-01-25T00:44:43;102197.94;;;0.69;100.00
31761;BME280;18335;51.486;7.562;2023-01-25T00:47:13;102189.66;;;0.75;100.00
31761;BME280;18335;51.486;7.562;2023-01-25T00:49:41;102197.34;;;0.61;100.00
31761;BME280;18335;51.486;7.562;2023-01-25T00:52:09;102192.03;;;0.60;100.00
31761;BME280;18335;51.486;7.562;2023-01-25T00:54:36;102189.34;;;0.60;100.00
31761;BME280;18335;51.486;7.562;2023-01-25T00:57:03;102178.88;;;0.52;100.00
31761;BME280;18335;51.486;7.562;2023-01-25T00:59:30;102174.81;;;0.65;100.00
31761;BME280;18335;51.486;7.562;2023-01-25T01:01:57;102181.72;;;0.72;100.00
31761;BME280;18335;51.486;7.562;2023-01-25T01:04:26;102181.66;;;0.49;100.00
31761;BME280;18335;51.486;7.562;2023-01-25T01:06:53;102186.59;;;0.61;100.00
31761;BME280;18335;51.486;7.562;2023-01-25T01:09:21;102182.47;;;0.51;100.00
31761;BME280;18335;51.486;7.562;2023-01-25T01:11:50;102181.09;;;0.39;100.00
31761;BME280;18335;51.486;7.562;2023-01-25T01:14:18;102177.09;;;0.51;100.00
31761;BME280;18335;51.486;7.562;2023-01-25T01:16:45;102178.00;;;0.51;100.00
31761;BME280;18335;51.486;7.562;2023-01-25T01:19:14;102171.25;;;0.40;100.00
31761;BME280;18335;51.486;7.562;2023-01-25T01:21:42;102175.94;;;0.09;100.00
31761;BME280;18335;51.486;7.562;2023-01-25T01:24:09;102173.66;;;-0.04;100.00
31761;BME280;18335;51.486;7.562;2023-01-25T01:26:36;102173.16;;;0.12;100.00
31761;BME280;18335;51.486;7.562;2023-01-25T01:29:04;102178.00;;;0.27;100.00
31761;BME280;18335;51.486;7.562;2023-01-25T01:31:31;102186.78;;;0.30;100.00
31761;BME280;18335;51.486;7.562;2023-01-25T01:34:13;102180.81;;;0.22;100.00
31761;BME280;18335;51.486;7.562;2023-01-25T01:36:40;102182.03;;;0.14;100.00
31761;BME280;18335;51.486;7.562;2023-01-25T01:39:10;102178.53;;;0.12;100.00
31761;BME280;18335;51.486;7.562;2023-01-25T01:41:37;102176.44;;;0.20;100.00
31761;BME280;18335;51.486;7.562;2023-01-25T01:44:05;102176.16;;;0.03;100.00
31761;BME280;18335;51.486;7.562;2023-01-25T01:46:34;102180.16;;;-0.11;100.00
31761;BME280;18335;51.486;7.562;2023-01-25T01:49:10;102181.81;;;-0.07;100.00
31761;BME280;18335;51.486;7.562;2023-01-25T01:51:43;102172.00;;;-0.08;100.00
31761;BME280;18335;51.486;7.562;2023-01-25T01:54:21;102181.63;;;-0.01;100.00
31761;BME280;18335;51.486;7.562;2023-01-25T01:56:55;102178.34;;;0.16;100.00
31761;BME280;18335;51.486;7.562;2023-01-25T01:59:27;102180.13;;;0.17;100.00
31761;BME280;18335;51.486;7.562;2023-01-25T02:01:56;102175.25;;;0.28;100.00
31761;BME280;18335;51.486;7.562;2023-01-25T02:04:23;102169.88;;;0.28;100.00
31761;BME280;18335;51.486;7.562;2023-01-25T02:06:56;102172.53;;;0.30;100.00
31761;BME280;18335;51.486;7.562;2023-01-25T02:09:28;102168.88;;;0.31;100.00
31761;BME280;18335;51.486;7.562;2023-01-25T02:11:57;102173.25;;;0.09;100.00
31761;BME280;18335;51.486;7.562;2023-01-25T02:14:27;102166.03;;;0.11;100.00
31761;BME280;18335;51.486;7.562;2023-01-25T02:16:54;102167.78;;;0.12;100.00
31761;BME280;18335;51.486;7.562;2023-01-25T02:19:33;102169.63;;;0.10;100.00
31761;BME280;18335;51.486;7.562;2023-01-25T02:22:08;102169.69;;;0.08;100.00
31761;BME280;18335;51.486;7.562;2023-01-25T02:24:43;102172.16;;;0.14;100.00
31761;BME280;18335;51.486;7.562;2023-01-25T02:27:14;102166.41;;;0.25;100.00
31761;BME280;18335;51.486;7.562;2023-01-25T02:29:41;102165.59;;;0.23;100.00
31761;BME280;18335;51.486;7.562;2023-01-25T02:32:08;102164.03;;;0.16;100.00
31761;BME280;18335;51.486;7.562;2023-01-25T02:34:35;102167.47;;;0.21;100.00
31761;BME280;18335;51.486;7.562;2023-01-25T02:37:02;102169.13;;;-0.02;100.00
31761;BME280;18335;51.486;7.562;2023-01-25T02:39:29;102170.69;;;0.06;100.00
31761;BME280;18335;51.486;7.562;2023-01-25T02:41:56;102167.78;;;0.12;100.00
31761;BME280;18335;51.486;7.562;2023-01-25T02:44:28;102180.94;;;0.19;100.00
31761;BME280;18335;51.486;7.562;2023-01-25T02:46:56;102168.50;;;0.17;100.00
31761;BME280;18335;51.486;7.562;2023-01-25T02:49:23;102173.03;;;-0.12;100.00
31761;BME280;18335;51.486;7.562;2023-01-25T02:51:51;102166.13;;;-0.19;100.00
31761;BME280;18335;51.486;7.562;2023-01-25T02:54:21;102161.56;;;-0.17;100.00
31761;BME280;18335;51.486;7.562;2023-01-25T02:56:49;102157.69;;;-0.07;100.00
31761;BME280;18335;51.486;7.562;2023-01-25T02:59:16;102160.97;;;0.02;100.00
31761;BME280;18335;51.486;7.562;2023-01-25T03:01:49;102161.25;;;0.19;100.00
31761;BME280;18335;51.486;7.562;2023-01-25T03:04:16;102162.63;;;0.06;100.00
31761;BME280;18335;51.486;7.562;2023-01-25T03:06:43;102166.06;;;0.09;100.00
31761;BME280;18335;51.486;7.562;2023-01-25T03:09:10;102154.47;;;0.09;100.00
31761;BME280;18335;51.486;7.562;2023-01-25T03:11:41;102153.41;;;0.13;100.00
31761;BME280;18335;51.486;7.562;2023-01-25T03:14:09;102153.97;;;0.22;100.00
31761;BME280;18335;51.486;7.562;2023-01-25T03:16:35;102153.31;;;0.16;100.00
31761;BME280;18335;51.486;7.562;2023-01-25T03:19:05;102150.72;;;0.13;100.00
31761;BME280;18335;51.486;7.562;2023-01-25T03:21:32;102155.00;;;0.18;100.00
31761;BME280;18335;51.486;7.562;2023-01-25T03:24:00;102145.44;;;0.11;100.00
31761;BME280;18335;51.486;7.562;2023-01-25T03:26:36;102139.22;;;0.09;100.00
31761;BME280;18335;51.486;7.562;2023-01-25T03:29:30;102138.03;;;-0.09;100.00
31761;BME280;18335;51.486;7.562;2023-01-25T03:31:58;102140.69;;;-0.07;100.00
31761;BME280;18335;51.486;7.562;2023-01-25T03:34:26;102135.13;;;-0.01;100.00
31761;BME280;18335;51.486;7.562;2023-01-25T03:36:53;102136.72;;;0.05;100.00
31761;BME280;18335;51.486;7.562;2023-01-25T03:39:20;102133.91;;;0.08;100.00
31761;BME280;18335;51.486;7.562;2023-01-25T03:41:46;102116.03;;;0.08;100.00
31761;BME280;18335;51.486;7.562;2023-01-25T03:44:14;102114.16;;;0.10;100.00
31761;BME280;18335;51.486;7.562;2023-01-25T03:46:43;102115.25;;;0.05;100.00
31761;BME280;18335;51.486;7.562;2023-01-25T03:49:10;102110.53;;;0.11;100.00
31761;BME280;18335;51.486;7.562;2023-01-25T03:51:38;102104.88;;;0.19;100.00
31761;BME280;18335;51.486;7.562;2023-01-25T03:54:06;102100.78;;;0.09;100.00
31761;BME280;18335;51.486;7.562;2023-01-25T03:56:35;102089.56;;;0.22;100.00
31761;BME280;18335;51.486;7.562;2023-01-25T03:59:17;102087.53;;;0.04;100.00
31761;BME280;18335;51.486;7.562;2023-01-25T04:01:44;102084.47;;;0.15;100.00
31761;BME280;18335;51.486;7.562;2023-01-25T04:04:11;102075.25;;;0.22;100.00
31761;BME280;18335;51.486;7.562;2023-01-25T04:06:41;102077.91;;;0.23;100.00
31761;BME280;18335;51.486;7.562;2023-01-25T04:09:08;102075.09;;;0.26;100.00
31761;BME280;18335;51.486;7.562;2023-01-25T04:11:40;102072.53;;;0.23;100.00
31761;BME280;18335;51.486;7.562;2023-01-25T04:14:07;102079.59;;;0.26;100.00
31761;BME280;18335;51.486;7.562;2023-01-25T04:16:44;102072.25;;;0.31;100.00
31761;BME280;18335;51.486;7.562;2023-01-25T04:19:46;102075.44;;;0.17;100.00
31761;BME280;18335;51.486;7.562;2023-01-25T04:22:17;102074.91;;;0.31;100.00
31761;BME280;18335;51.486;7.562;2023-01-25T04:24:44;102074.13;;;0.29;100.00
31761;BME280;18335;51.486;7.562;2023-01-25T04:27:11;102073.66;;;-0.09;100.00
31761;BME280;18335;51.486;7.562;2023-01-25T04:29:46;102071.59;;;-0.01;100.00
31761;BME280;18335;51.486;7.562;2023-01-25T04:32:17;102060.53;;;0.09;100.00
31761;BME280;18335;51.486;7.562;2023-01-25T04:34:44;102062.16;;;0.13;100.00
31761;BME280;18335;51.486;7.562;2023-01-25T04:37:15;102053.34;;;0.09;100.00
31761;BME280;18335;51.486;7.562;2023-01-25T04:39:51;102053.75;;;-0.02;100.00
31761;BME280;18335;51.486;7.562;2023-01-25T04:42:19;102052.81;;;-0.01;100.00
31761;BME280;18335;51.486;7.562;2023-01-25T04:44:49;102052.22;;;-0.35;100.00
31761;BME280;18335;51.486;7.562;2023-01-25T04:47:16;102048.69;;;-0.11;100.00
31761;BME280;18335;51.486;7.562;2023-01-25T04:49:43;102041.69;;;-0.15;100.00
31761;BME280;18335;51.486;7.562;2023-01-25T04:52:12;102052.84;;;-0.02;100.00
31761;BME280;18335;51.486;7.562;2023-01-25T04:54:38;102054.03;;;-0.35;100.00
31761;BME280;18335;51.486;7.562;2023-01-25T04:57:07;102042.00;;;-0.24;100.00
31761;BME280;18335;51.486;7.562;2023-01-25T04:59:34;102041.28;;;-0.29;100.00
31761;BME280;18335;51.486;7.562;2023-01-25T05:02:01;102044.31;;;-0.13;100.00
31761;BME280;18335;51.486;7.562;2023-01-25T05:04:27;102040.31;;;-0.26;100.00
31761;BME280;18335;51.486;7.562;2023-01-25T05:06:54;102042.31;;;-0.33;100.00
31761;BME280;18335;51.486;7.562;2023-01-25T05:09:21;102044.84;;;-0.28;100.00
31761;BME280;18335;51.486;7.562;2023-01-25T05:11:47;102041.34;;;-0.30;100.00
31761;BME280;18335;51.486;7.562;2023-01-25T05:14:36;102046.75;;;-0.32;100.00
31761;BME280;18335;51.486;7.562;2023-01-25T05:17:05;102045.41;;;-0.19;100.00
31761;BME280;18335;51.486;7.562;2023-01-25T05:19:32;102045.44;;;-0.20;100.00
31761;BME280;18335;51.486;7.562;2023-01-25T05:22:02;102036.09;;;-0.09;100.00
31761;BME280;18335;51.486;7.562;2023-01-25T05:24:45;102036.81;;;-0.04;100.00
31761;BME280;18335;51.486;7.562;2023-01-25T05:27:15;102036.47;;;-0.19;100.00
31761;BME280;18335;51.486;7.562;2023-01-25T05:30:07;102040.28;;;0.00;100.00
31761;BME280;18335;51.486;7.562;2023-01-25T05:32:52;102040.38;;;-0.03;100.00
31761;BME280;18335;51.486;7.562;2023-01-25T05:35:20;102041.06;;;-0.23;100.00
31761;BME280;18335;51.486;7.562;2023-01-25T05:37:55;102043.88;;;-0.26;100.00
31761;BME280;18335;51.486;7.562;2023-01-25T05:40:22;102042.72;;;-0.19;100.00
31761;BME280;18335;51.486;7.562;2023-01-25T05:42:53;102046.59;;;-0.03;100.00
31761;BME280;18335;51.486;7.562;2023-01-25T05:45:23;102040.31;;;-0.02;100.00
31761;BME280;18335;51.486;7.562;2023-01-25T05:47:53;102038.13;;;0.10;100.00
31761;BME280;18335;51.486;7.562;2023-01-25T05:50:20;102040.88;;;-0.17;100.00
31761;BME280;18335;51.486;7.562;2023-01-25T05:53:00;102037.72;;;-0.03;100.00
31761;BME280;18335;51.486;7.562;2023-01-25T05:55:28;102032.75;;;0.10;100.00
31761;BME280;18335;51.486;7.562;2023-01-25T05:57:59;102037.41;;;0.05;100.00
31761;BME280;18335;51.486;7.562;2023-01-25T06:00:27;102037.13;;;0.12;100.00
31761;BME280;18335;51.486;7.562;2023-01-25T06:02:55;102045.63;;;0.25;100.00
31761;BME280;18335;51.486;7.562;2023-01-25T06:05:25;102039.38;;;0.24;100.00
31761;BME280;18335;51.486;7.562;2023-01-25T06:07:53;102033.41;;;0.16;100.00
31761;BME280;18335;51.486;7.562;2023-01-25T06:10:23;102028.75;;;0.21;100.00
31761;BME280;18335;51.486;7.562;2023-01-25T06:12:50;102020.66;;;0.23;100.00
31761;BME280;18335;51.486;7.562;2023-01-25T06:15:16;102026.25;;;0.17;100.00
31761;BME280;18335;51.486;7.562;2023-01-25T06:17:45;102022.31;;;0.27;100.00
31761;BME280;18335;51.486;7.562;2023-01-25T06:20:30;102020.09;;;0.13;100.00
31761;BME280;18335;51.486;7.562;2023-01-25T06:23:05;102024.69;;;0.10;100.00
31761;BME280;18335;51.486;7.562;2023-01-25T06:25:32;102020.88;;;0.17;100.00
31761;BME280;18335;51.486;7.562;2023-01-25T06:27:59;102022.75;;;0.15;100.00
31761;BME280;18335;51.486;7.562;2023-01-25T06:30:26;102029.59;;;-0.02;100.00
31761;BME280;18335;51.486;7.562;2023-01-25T06:32:56;102026.47;;;0.11;100.00
31761;BME280;18335;51.486;7.562;2023-01-25T06:35:23;102021.97;;;0.11;100.00
31761;BME280;18335;51.486;7.562;2023-01-25T06:37:50;102023.66;;;0.14;100.00
31761;BME280;18335;51.486;7.562;2023-01-25T06:40:17;102028.69;;;0.23;100.00
31761;BME280;18335;51.486;7.562;2023-01-25T06:42:43;102031.72;;;0.14;100.00
31761;BME280;18335;51.486;7.562;2023-01-25T06:45:10;102039.28;;;0.03;100.00
31761;BME280;18335;51.486;7.562;2023-01-25T06:47:37;102042.91;;;0.02;100.00
31761;BME280;18335;51.486;7.562;2023-01-25T06:50:06;102034.56;;;0.09;100.00
31761;BME280;18335;51.486;7.562;2023-01-25T06:52:33;102036.63;;;-0.24;100.00
31761;BME280;18335;51.486;7.562;2023-01-25T06:55:00;102032.31;;;-0.28;100.00
31761;BME280;18335;51.486;7.562;2023-01-25T06:57:27;102036.19;;;-0.12;100.00
31761;BME280;18335;51.486;7.562;2023-01-25T06:59:54;102028.47;;;-0.21;100.00
31761;BME280;18335;51.486;7.562;2023-01-25T07:02:21;102037.69;;;-0.28;100.00
31761;BME280;18335;51.486;7.562;2023-01-25T07:04:48;102039.00;;;-0.15;100.00
31761;BME280;18335;51.486;7.562;2023-01-25T07:07:16;102027.94;;;-0.30;100.00
31761;BME280;18335;51.486;7.562;2023-01-25T07:09:43;102031.47;;;-0.30;100.00
31761;BME280;18335;51.486;7.562;2023-01-25T07:12:09;102036.63;;;-0.24;100.00
31761;BME280;18335;51.486;7.562;2023-01-25T07:14:36;102036.84;;;-0.30;100.00
31761;BME280;18335;51.486;7.562;2023-01-25T07:17:03;102041.19;;;-0.26;100.00
31761;BME280;18335;51.486;7.562;2023-01-25T07:19:29;102042.09;;;-0.27;100.00
31761;BME280;18335;51.486;7.562;2023-01-25T07:21:56;102036.63;;;-0.24;100.00
31761;BME280;18335;51.486;7.562;2023-01-25T07:24:24;102026.13;;;-0.05;100.00
31761;BME280;18335;51.486;7.562;2023-01-25T07:26:53;102024.34;;;-0.05;100.00
31761;BME280;18335;51.486;7.562;2023-01-25T07:29:20;102023.19;;;0.03;100.00
31761;BME280;18335;51.486;7.562;2023-01-25T07:31:47;102027.22;;;-0.11;100.00
31761;BME280;18335;51.486;7.562;2023-01-25T07:34:14;102022.34;;;0.00;100.00
31761;BME280;18335;51.486;7.562;2023-01-25T07:36:41;102017.31;;;-0.09;100.00
31761;BME280;18335;51.486;7.562;2023-01-25T07:39:09;102014.38;;;-0.01;100.00
31761;BME280;18335;51.486;7.562;2023-01-25T07:41:38;102018.31;;;0.14;100.00
31761;BME280;18335;51.486;7.562;2023-01-25T07:44:09;102020.63;;;-0.01;100.00
31761;BME280;18335;51.486;7.562;2023-01-25T07:46:43;102012.69;;;-0.04;100.00
31761;BME280;18335;51.486;7.562;2023-01-25T07:49:10;102017.09;;;-0.53;100.00
31761;BME280;18335;51.486;7.562;2023-01-25T07:51:37;102010.38;;;-0.14;100.00
31761;BME280;18335;51.486;7.562;2023-01-25T07:54:04;102010.69;;;0.02;100.00
31761;BME280;18335;51.486;7.562;2023-01-25T07:56:32;102009.88;;;-0.01;100.00
31761;BME280;18335;51.486;7.562;2023-01-25T07:59:01;102005.34;;;0.02;100.00
31761;BME280;18335;51.486;7.562;2023-01-25T08:01:29;102011.78;;;-0.04;100.00
31761;BME280;18335;51.486;7.562;2023-01-25T08:03:57;102005.56;;;-0.05;100.00
31761;BME280;18335;51.486;7.562;2023-01-25T08:06:25;102012.06;;;-0.12;100.00
31761;BME280;18335;51.486;7.562;2023-01-25T08:08:56;102011.25;;;-0.14;100.00
31761;BME280;18335;51.486;7.562;2023-01-25T08:11:25;102009.16;;;-0.06;100.00
31761;BME280;18335;51.486;7.562;2023-01-25T08:13:52;102013.22;;;-0.19;100.00
31761;BME280;18335;51.486;7.562;2023-01-25T08:16:22;102009.44;;;-0.13;100.00
31761;BME280;18335;51.486;7.562;2023-01-25T08:18:50;102008.00;;;0.02;100.00
31761;BME280;18335;51.486;7.562;2023-01-25T08:21:17;102003.78;;;-0.06;100.00
31761;BME280;18335;51.486;7.562;2023-01-25T08:23:44;102005.44;;;-0.02;100.00
31761;BME280;18335;51.486;7.562;2023-01-25T08:26:13;102007.50;;;0.15;100.00
31761;BME280;18335;51.486;7.562;2023-01-25T08:28:41;102001.63;;;0.06;100.00
31761;BME280;18335;51.486;7.562;2023-01-25T08:31:10;102001.38;;;0.12;100.00
31761;BME280;18335;51.486;7.562;2023-01-25T08:33:38;101993.44;;;0.09;100.00
31761;BME280;18335;51.486;7.562;2023-01-25T08:36:06;101999.25;;;-0.04;100.00
31761;BME280;18335;51.486;7.562;2023-01-25T08:38:34;101991.47;;;-0.11;100.00
31761;BME280;18335;51.486;7.562;2023-01-25T08:41:05;101989.69;;;-0.11;100.00
31761;BME280;18335;51.486;7.562;2023-01-25T08:43:32;101989.31;;;0.00;100.00
31761;BME280;18335;51.486;7.562;2023-01-25T08:45:59;101989.34;;;-0.02;100.00
31761;BME280;18335;51.486;7.562;2023-01-25T08:48:26;101987.41;;;0.27;100.00
31761;BME280;18335;51.486;7.562;2023-01-25T08:50:54;101982.06;;;0.25;100.00
31761;BME280;18335;51.486;7.562;2023-01-25T08:53:21;101988.56;;;-0.05;100.00
31761;BME280;18335;51.486;7.562;2023-01-25T08:55:47;101994.38;;;0.08;100.00
31761;BME280;18335;51.486;7.562;2023-01-25T08:58:16;101994.16;;;-0.11;100.00
31761;BME280;18335;51.486;7.562;2023-01-25T09:00:44;101990.88;;;0.06;100.00
31761;BME280;18335;51.486;7.562;2023-01-25T09:03:11;101993.38;;;-0.15;100.00
31761;BME280;18335;51.486;7.562;2023-01-25T09:05:38;101984.75;;;0.02;100.00
31761;BME280;18335;51.486;7.562;2023-01-25T09:08:07;101979.16;;;0.08;100.00
31761;BME280;18335;51.486;7.562;2023-01-25T09:10:35;101971.56;;;0.19;100.00
31761;BME280;18335;51.486;7.562;2023-01-25T09:13:02;101967.66;;;0.28;100.00
31761;BME280;18335;51.486;7.562;2023-01-25T09:15:29;101961.59;;;0.23;100.00
31761;BME280;18335;51.486;7.562;2023-01-25T09:17:56;101963.59;;;0.18;100.00
31761;BME280;18335;51.486;7.562;2023-01-25T09:20:23;101958.56;;;0.09;100.00
31761;BME280;18335;51.486;7.562;2023-01-25T09:22:50;101956.34;;;0.20;100.00
31761;BME280;18335;51.486;7.562;2023-01-25T09:25:18;101949.47;;;0.36;100.00
31761;BME280;18335;51.486;7.562;2023-01-25T09:27:48;101947.38;;;0.42;100.00
31761;BME280;18335;51.486;7.562;2023-01-25T09:30:15;101942.13;;;0.39;100.00
31761;BME280;18335;51.486;7.562;2023-01-25T09:32:42;101948.56;;;0.12;100.00
31761;BME280;18335;51.486;7.562;2023-01-25T09:35:09;101939.41;;;0.41;100.00
31761;BME280;18335;51.486;7.562;2023-01-25T09:37:36;101941.13;;;0.42;100.00
31761;BME280;18335;51.486;7.562;2023-01-25T09:40:04;101936.72;;;0.41;100.00
31761;BME280;18335;51.486;7.562;2023-01-25T09:45:30;101937.56;;;0.20;100.00
31761;BME280;18335;51.486;7.562;2023-01-25T09:48:02;101937.66;;;0.40;100.00
31761;BME280;18335;51.486;7.562;2023-01-25T09:50:35;101943.66;;;0.46;100.00
31761;BME280;18335;51.486;7.562;2023-01-25T09:53:32;101926.03;;;0.39;100.00
31761;BME280;18335;51.486;7.562;2023-01-25T09:56:03;101926.59;;;0.26;100.00
31761;BME280;18335;51.486;7.562;2023-01-25T09:58:38;101931.13;;;0.47;100.00
31761;BME280;18335;51.486;7.562;2023-01-25T10:01:25;101928.44;;;0.47;100.00
31761;BME280;18335;51.486;7.562;2023-01-25T10:03:57;101923.94;;;0.47;100.00
31761;BME280;18335;51.486;7.562;2023-01-25T10:06:34;101923.88;;;0.49;100.00
31761;BME280;18335;51.486;7.562;2023-01-25T10:09:06;101918.88;;;0.62;100.00
31761;BME280;18335;51.486;7.562;2023-01-25T10:11:38;101917.44;;;0.53;100.00
31761;BME280;18335;51.486;7.562;2023-01-25T10:14:12;101909.03;;;0.39;100.00
31761;BME280;18335;51.486;7.562;2023-01-25T10:16:47;101910.56;;;0.46;100.00
31761;BME280;18335;51.486;7.562;2023-01-25T10:19:17;101915.81;;;0.49;100.00
31761;BME280;18335;51.486;7.562;2023-01-25T10:21:50;101912.38;;;0.45;100.00
31761;BME280;18335;51.486;7.562;2023-01-25T10:24:36;101916.25;;;0.60;100.00
31761;BME280;18335;51.486;7.562;2023-01-25T10:27:15;101909.69;;;0.67;100.00
31761;BME280;18335;51.486;7.562;2023-01-25T10:29:46;101906.50;;;0.57;100.00
31761;BME280;18335;51.486;7.562;2023-01-25T10:32:17;101899.56;;;0.52;100.00
31761;BME280;18335;51.486;7.562;2023-01-25T10:34:46;101893.69;;;0.42;100.00
31761;BME280;18335;51.486;7.562;2023-01-25T10:37:15;101900.19;;;0.37;100.00
31761;BME280;18335;51.486;7.562;2023-01-25T10:40:01;101900.13;;;0.15;100.00
31761;BME280;18335;51.486;7.562;2023-01-25T10:42:36;101903.78;;;0.14;100.00
31761;BME280;18335;51.486;7.562;2023-01-25T10:45:11;101894.84;;;0.14;100.00
31761;BME280;18335;51.486;7.562;2023-01-25T10:47:39;101888.88;;;0.29;100.00
31761;BME280;18335;51.486;7.562;2023-01-25T10:50:08;101878.53;;;0.18;100.00
31761;BME280;18335;51.486;7.562;2023-01-25T10:52:35;101878.69;;;-0.08;100.00
31761;BME280;18335;51.486;7.562;2023-01-25T10:55:13;101871.69;;;0.11;100.00
31761;BME280;18335;51.486;7.562;2023-01-25T10:57:42;101878.78;;;0.12;100.00
31761;BME280;18335;51.486;7.562;2023-01-25T11:00:22;101868.56;;;0.22;100.00
31761;BME280;18335;51.486;7.562;2023-01-25T11:02:50;101864.09;;;0.22;100.00
31761;BME280;18335;51.486;7.562;2023-01-25T11:05:26;101860.00;;;0.35;100.00
31761;BME280;18335;51.486;7.562;2023-01-25T11:07:53;101852.06;;;0.09;100.00
31761;BME280;18335;51.486;7.562;2023-01-25T11:10:29;101850.25;;;0.33;100.00
31761;BME280;18335;51.486;7.562;2023-01-25T11:13:22;101849.44;;;0.52;100.00
31761;BME280;18335;51.486;7.562;2023-01-25T11:15:53;101849.47;;;0.73;100.00
31761;BME280;18335;51.486;7.562;2023-01-25T11:18:22;101854.66;;;0.77;100.00
31761;BME280;18335;51.486;7.562;2023-01-25T11:21:04;101834.34;;;0.70;100.00
31761;BME280;18335;51.486;7.562;2023-01-25T11:23:31;101839.09;;;0.64;100.00
31761;BME280;18335;51.486;7.562;2023-01-25T11:26:16;101828.50;;;0.39;100.00
31761;BME280;18335;51.486;7.562;2023-01-25T11:28:44;101827.31;;;0.46;100.00
31761;BME280;18335;51.486;7.562;2023-01-25T11:31:19;101824.09;;;0.38;100.00
31761;BME280;18335;51.486;7.562;2023-01-25T11:33:47;101816.41;;;0.29;100.00
31761;BME280;18335;51.486;7.562;2023-01-25T11:36:24;101812.66;;;0.33;100.00
31761;BME280;18335;51.486;7.562;2023-01-25T11:39:04;101806.09;;;0.40;100.00
31761;BME280;18335;51.486;7.562;2023-01-25T11:41:41;101800.66;;;0.41;100.00
31761;BME280;18335;51.486;7.562;2023-01-25T11:47:20;101779.31;;;0.38;100.00
31761;BME280;18335;51.486;7.562;2023-01-25T11:49:58;101779.81;;;0.26;100.00
31761;BME280;18335;51.486;7.562;2023-01-25T11:52:47;101774.41;;;0.48;100.00
31761;BME280;18335;51.486;7.562;2023-01-25T11:55:25;101756.16;;;0.36;100.00
31761;BME280;18335;51.486;7.562;2023-01-25T11:58:10;101753.06;;;0.45;100.00
31761;BME280;18335;51.486;7.562;2023-01-25T12:00:49;101743.03;;;0.50;100.00
31761;BME280;18335;51.486;7.562;2023-01-25T12:03:40;101749.06;;;0.55;100.00
31761;BME280;18335;51.486;7.562;2023-01-25T12:06:12;101750.63;;;0.39;100.00
31761;BME280;18335;51.486;7.562;2023-01-25T12:08:52;101738.81;;;0.23;100.00
31761;BME280;18335;51.486;7.562;2023-01-25T12:11:35;101729.50;;;0.51;100.00
31761;BME280;18335;51.486;7.562;2023-01-25T12:14:10;101723.97;;;0.56;100.00
31761;BME280;18335;51.486;7.562;2023-01-25T12:16:55;101716.81;;;0.35;100.00
31761;BME280;18335;51.486;7.562;2023-01-25T12:19:41;101709.38;;;0.41;100.00
31761;BME280;18335;51.486;7.562;2023-01-25T12:25:20;101706.88;;;0.37;100.00
31761;BME280;18335;51.486;7.562;2023-01-25T12:28:04;101697.38;;;0.50;100.00
31761;BME280;18335;51.486;7.562;2023-01-25T12:30:44;101691.47;;;0.62;100.00
31761;BME280;18335;51.486;7.562;2023-01-25T12:33:17;101680.47;;;0.68;100.00
31761;BME280;18335;51.486;7.562;2023-01-25T12:35:50;101673.78;;;0.77;100.00
31761;BME280;18335;51.486;7.562;2023-01-25T12:38:24;101666.75;;;0.54;100.00
31761;BME280;18335;51.486;7.562;2023-01-25T12:40:54;101661.38;;;0.54;100.00
31761;BME280;18335;51.486;7.562;2023-01-25T12:43:27;101662.09;;;0.57;100.00
31761;BME280;18335;51.486;7.562;2023-01-25T12:45:56;101648.75;;;0.76;100.00
31761;BME280;18335;51.486;7.562;2023-01-25T12:48:26;101648.97;;;0.72;100.00
31761;BME280;18335;51.486;7.562;2023-01-25T12:50:58;101645.53;;;0.68;100.00
31761;BME280;18335;51.486;7.562;2023-01-25T12:53:26;101638.69;;;0.41;100.00
31761;BME280;18335;51.486;7.562;2023-01-25T12:55:56;101621.09;;;0.54;100.00
31761;BME280;18335;51.486;7.562;2023-01-25T12:58:30;101624.38;;;0.61;100.00
31761;BME280;18335;51.486;7.562;2023-01-25T13:01:02;101615.13;;;0.68;100.00
31761;BME280;18335;51.486;7.562;2023-01-25T13:03:43;101609.63;;;0.89;100.00
31761;BME280;18335;51.486;7.562;2023-01-25T13:06:17;101599.47;;;0.77;100.00
31761;BME280;18335;51.486;7.562;2023-01-25T13:08:54;101587.59;;;0.81;100.00
31761;BME280;18335;51.486;7.562;2023-01-25T13:11:24;101584.59;;;0.50;100.00
31761;BME280;18335;51.486;7.562;2023-01-25T13:14:25;101582.66;;;0.53;100.00
31761;BME280;18335;51.486;7.562;2023-01-25T13:16:54;101581.72;;;0.73;100.00